Time;durP1;ratioP1;P1;durP2;ratioP2;P2;SDS_P1;SDS_P2;PMS_P1;PMS_P2;Temp;Humidity;BMP_temperature;BMP_pressure;BME280_temperature;BME280_humidity;BME280_pressure;Samples;Min_cycle;Max_cycle;Signal;HPM_P1;HPM_P2
2021/03/31 00:01:23;;;;;;;27.63;15.73;;;13.20;62.80;;;;;;5032503;28;20025;-83
2021/03/31 00:03:49;;;;;;;25.15;12.90;;;13.00;63.60;;;;;;5030782;28;20068;-83
2021/03/31 00:06:14;;;;;;;23.13;13.48;;;13.00;63.60;;;;;;5031240;28;20044;-82
2021/03/31 00:08:42;;;;;;;25.73;14.10;;;13.00;63.70;;;;;;5031135;28;20017;-83
2021/03/31 00:11:08;;;;;;;20.65;12.73;;;13.00;64.00;;;;;;5043608;28;20026;-83
2021/03/31 00:13:33;;;;;;;21.88;12.07;;;13.00;64.00;;;;;;5045098;28;20044;-83
2021/03/31 00:15:59;;;;;;;25.65;13.30;;;12.90;63.80;;;;;;5032340;28;20487;-83
2021/03/31 00:18:26;;;;;;;25.17;14.55;;;13.00;63.50;;;;;;5030932;28;20017;-83
2021/03/31 00:20:52;;;;;;;24.70;13.48;;;13.00;63.20;;;;;;5032006;28;20096;-83
2021/03/31 00:23:21;;;;;;;26.10;14.02;;;13.00;63.30;;;;;;5030872;28;20049;-83
2021/03/31 00:25:47;;;;;;;21.45;11.68;;;12.90;63.60;;;;;;5032229;28;20088;-83
2021/03/31 00:28:13;;;;;;;18.67;11.02;;;12.90;63.80;;;;;;5030958;28;20152;-83
2021/03/31 00:30:39;;;;;;;18.33;10.75;;;12.80;64.10;;;;;;5030711;28;20044;-83
2021/03/31 00:33:05;;;;;;;22.00;12.40;;;12.80;64.10;;;;;;5031982;28;20025;-83
2021/03/31 00:35:31;;;;;;;24.25;12.48;;;12.80;64.10;;;;;;5031968;28;20021;-83
2021/03/31 00:37:57;;;;;;;23.63;13.13;;;12.70;64.00;;;;;;5044646;28;20079;-83
2021/03/31 00:40:31;;;;;;;21.92;12.23;;;12.70;64.00;;;;;;5030553;28;20045;-82
2021/03/31 00:42:56;;;;;;;24.13;13.52;;;12.70;63.90;;;;;;5020072;28;20489;-83
2021/03/31 00:45:23;;;;;;;29.88;15.65;;;12.70;63.90;;;;;;5030792;28;20014;-83
2021/03/31 00:47:49;;;;;;;24.20;13.43;;;12.70;64.30;;;;;;5030660;28;20060;-83
2021/03/31 00:50:16;;;;;;;22.63;12.70;;;12.70;64.30;;;;;;5031707;28;20049;-83
2021/03/31 00:52:43;;;;;;;22.48;12.80;;;12.70;64.50;;;;;;5031851;28;20021;-84
2021/03/31 00:55:11;;;;;;;22.40;13.27;;;12.60;64.70;;;;;;5030517;28;20029;-83
2021/03/31 00:57:37;;;;;;;27.58;15.27;;;12.60;64.80;;;;;;5030604;28;20060;-83
2021/03/31 01:00:05;;;;;;;21.65;12.85;;;12.60;64.90;;;;;;5030364;28;20036;-83
2021/03/31 01:02:30;;;;;;;21.50;11.77;;;12.50;65.10;;;;;;5031522;28;20030;-83
2021/03/31 01:04:56;;;;;;;16.48;10.13;;;12.50;65.40;;;;;;5031485;28;20478;-83
2021/03/31 01:07:22;;;;;;;23.52;13.25;;;12.40;65.70;;;;;;5030494;28;20022;-83
2021/03/31 01:09:49;;;;;;;21.23;11.68;;;12.30;66.40;;;;;;5032283;28;20036;-83
2021/03/31 01:12:53;;;;;;;27.30;15.13;;;12.10;66.60;;;;;;5045064;28;20039;-83
2021/03/31 01:15:33;;;;;;;24.38;13.40;;;12.10;67.80;;;;;;5029234;28;20022;-83
2021/03/31 01:18:15;;;;;;;22.00;12.68;;;12.00;67.90;;;;;;5030914;28;20017;-83
2021/03/31 01:21:11;;;;;;;24.42;13.77;;;12.00;68.30;;;;;;5049051;28;20033;-83
2021/03/31 01:24:02;;;;;;;23.08;12.93;;;12.00;68.50;;;;;;5034135;28;20477;-83
2021/03/31 01:26:41;;;;;;;22.90;12.23;;;12.00;68.30;;;;;;5035606;28;20029;-83
2021/03/31 01:29:17;;;;;;;20.93;11.30;;;12.00;68.20;;;;;;5035501;28;20029;-83
2021/03/31 01:32:03;;;;;;;20.45;11.18;;;11.90;68.40;;;;;;5031690;28;20025;-83
2021/03/31 01:34:42;;;;;;;21.13;12.43;;;11.90;68.60;;;;;;5033746;28;20028;-83
2021/03/31 01:37:21;;;;;;;19.10;11.07;;;11.80;68.80;;;;;;5034092;28;20112;-83
2021/03/31 01:39:48;;;;;;;18.38;10.65;;;11.70;69.00;;;;;;5033188;28;20065;-83
2021/03/31 01:42:15;;;;;;;19.50;10.80;;;11.60;69.30;;;;;;5032675;28;20495;-83
2021/03/31 01:44:42;;;;;;;15.75;9.65;;;11.50;69.60;;;;;;5035071;28;20108;-83
2021/03/31 01:47:11;;;;;;;18.58;10.68;;;11.50;70.00;;;;;;5047953;28;20406;-83
2021/03/31 01:49:37;;;;;;;18.90;10.13;;;11.50;70.30;;;;;;5047919;28;20104;-83
2021/03/31 01:52:05;;;;;;;21.15;10.93;;;11.40;70.40;;;;;;5033742;28;20030;-83
2021/03/31 01:54:32;;;;;;;20.23;10.63;;;11.40;70.60;;;;;;5045777;28;20072;-83
2021/03/31 01:56:59;;;;;;;19.75;10.55;;;11.30;70.80;;;;;;5033555;28;20022;-83
2021/03/31 01:59:25;;;;;;;26.77;14.77;;;11.30;71.20;;;;;;5046969;28;20067;-83
2021/03/31 02:01:54;;;;;;;27.98;15.60;;;11.20;71.80;;;;;;5033129;28;20124;-83
2021/03/31 02:04:21;;;;;;;31.17;16.90;;;11.20;72.70;;;;;;5047728;28;20075;-83
2021/03/31 02:06:48;;;;;;;31.98;16.42;;;11.10;73.30;;;;;;5033343;28;20032;-83
2021/03/31 02:09:16;;;;;;;29.83;16.50;;;11.00;73.80;;;;;;5030919;28;20116;-83
2021/03/31 02:11:44;;;;;;;30.05;17.52;;;11.00;74.20;;;;;;5034408;28;20035;-83
2021/03/31 02:14:12;;;;;;;34.05;20.05;;;10.90;74.70;;;;;;5033098;28;20029;-83
2021/03/31 02:16:39;;;;;;;34.50;17.95;;;10.90;75.10;;;;;;5034583;28;20018;-84
2021/03/31 02:19:05;;;;;;;31.27;16.05;;;10.90;75.20;;;;;;5020379;28;20049;-83
2021/03/31 02:21:32;;;;;;;25.63;13.55;;;10.90;75.10;;;;;;5048227;28;20021;-83
2021/03/31 02:23:58;;;;;;;24.65;13.40;;;10.80;74.90;;;;;;5034335;28;20044;-83
2021/03/31 02:26:25;;;;;;;22.50;11.95;;;10.90;74.80;;;;;;5034489;28;20473;-83
2021/03/31 02:28:52;;;;;;;21.08;11.27;;;10.80;74.70;;;;;;5032861;28;20485;-82
2021/03/31 02:31:19;;;;;;;21.08;11.43;;;10.80;74.70;;;;;;5033041;28;20469;-83
2021/03/31 02:33:46;;;;;;;21.77;12.60;;;10.80;74.90;;;;;;5047415;28;20019;-83
2021/03/31 02:36:13;;;;;;;16.80;10.20;;;10.80;75.00;;;;;;5033918;28;20017;-83
2021/03/31 02:38:39;;;;;;;19.63;11.00;;;10.70;75.10;;;;;;5034179;28;20093;-83
2021/03/31 02:41:05;;;;;;;18.85;10.70;;;10.70;75.20;;;;;;5048131;28;20129;-83
2021/03/31 02:43:33;;;;;;;22.58;12.13;;;10.70;75.30;;;;;;5032793;28;20052;-83
2021/03/31 02:46:00;;;;;;;23.45;12.60;;;10.70;75.50;;;;;;5033941;28;20026;-83
2021/03/31 02:48:28;;;;;;;21.02;11.82;;;10.70;75.60;;;;;;5032919;28;20017;-83
2021/03/31 02:50:57;;;;;;;21.95;11.80;;;10.60;75.70;;;;;;5047063;28;20025;-83
2021/03/31 02:53:24;;;;;;;17.70;11.07;;;10.60;76.00;;;;;;5032881;28;20385;-83
2021/03/31 02:55:51;;;;;;;19.27;11.73;;;10.60;76.30;;;;;;5047870;28;20473;-83
2021/03/31 02:58:17;;;;;;;20.48;11.52;;;10.50;76.50;;;;;;5047388;28;20528;-83
2021/03/31 03:00:42;;;;;;;21.48;11.75;;;10.50;76.60;;;;;;5032655;28;20053;-83
2021/03/31 03:03:09;;;;;;;19.38;11.05;;;10.50;76.80;;;;;;5048753;28;20033;-83
2021/03/31 03:05:35;;;;;;;18.05;10.95;;;10.50;76.80;;;;;;5031184;28;20022;-83
2021/03/31 03:08:03;;;;;;;19.30;11.55;;;10.40;77.00;;;;;;5032165;28;20040;-83
2021/03/31 03:10:29;;;;;;;21.77;12.25;;;10.20;77.40;;;;;;5032106;28;20052;-83
2021/03/31 03:12:59;;;;;;;21.13;12.43;;;10.00;78.10;;;;;;5048697;28;20029;-83
2021/03/31 03:15:27;;;;;;;18.83;11.38;;;9.90;78.30;;;;;;5044621;28;20022;-83
2021/03/31 03:17:53;;;;;;;19.30;10.98;;;9.90;78.40;;;;;;5033285;28;20079;-83
2021/03/31 03:20:20;;;;;;;25.70;14.40;;;9.90;78.40;;;;;;5033276;28;20100;-83
2021/03/31 03:22:50;;;;;;;24.73;13.68;;;9.90;79.00;;;;;;5029485;28;20022;-83
2021/03/31 03:25:19;;;;;;;24.70;12.23;;;10.00;79.20;;;;;;5032852;28;20025;-83
2021/03/31 03:27:46;;;;;;;18.98;11.32;;;9.90;79.20;;;;;;5047210;28;20542;-83
2021/03/31 03:30:14;;;;;;;20.35;11.45;;;9.90;79.20;;;;;;5045273;28;20031;-83
2021/03/31 03:32:42;;;;;;;19.88;11.75;;;9.90;79.20;;;;;;5031746;28;20025;-83
2021/03/31 03:35:13;;;;;;;19.77;12.23;;;9.90;79.20;;;;;;5032430;28;20029;-83
2021/03/31 03:37:38;;;;;;;19.30;10.93;;;9.90;79.10;;;;;;5045914;28;20497;-83
2021/03/31 03:40:05;;;;;;;21.10;11.55;;;9.90;79.10;;;;;;5030821;28;20076;-83
2021/03/31 03:42:30;;;;;;;23.00;11.73;;;9.90;79.30;;;;;;5031818;28;20037;-83
2021/03/31 03:45:00;;;;;;;31.30;13.75;;;9.90;79.50;;;;;;5047147;28;20473;-83
2021/03/31 03:47:26;;;;;;;18.17;10.30;;;9.90;79.60;;;;;;5044946;28;20060;-83
2021/03/31 03:49:52;;;;;;;20.73;10.65;;;9.90;79.70;;;;;;5040552;28;20418;-83
2021/03/31 03:52:17;;;;;;;18.33;10.35;;;9.80;79.60;;;;;;5045305;28;20108;-83
2021/03/31 03:54:50;;;;;;;18.33;10.45;;;9.80;79.80;;;;;;5032606;28;20064;-83
2021/03/31 03:57:30;;;;;;;17.38;10.40;;;9.80;80.10;;;;;;5032857;28;20014;-83
2021/03/31 03:59:56;;;;;;;21.67;10.85;;;9.70;80.20;;;;;;5032486;28;20025;-83
2021/03/31 04:02:22;;;;;;;21.48;12.18;;;9.70;80.50;;;;;;5032525;28;20040;-83
2021/03/31 04:04:48;;;;;;;18.30;9.73;;;9.70;80.60;;;;;;5031240;28;20051;-83
2021/03/31 04:07:13;;;;;;;17.60;10.25;;;9.60;80.70;;;;;;5028594;28;20025;-83
2021/03/31 04:09:46;;;;;;;15.77;9.05;;;9.60;81.00;;;;;;5045790;28;20455;-83
2021/03/31 04:12:12;;;;;;;18.77;9.20;;;9.60;81.40;;;;;;5030823;28;20472;-83
2021/03/31 04:14:40;;;;;;;17.60;8.70;;;9.60;81.40;;;;;;5044890;28;20854;-83
2021/03/31 04:17:06;;;;;;;17.70;9.55;;;9.50;81.30;;;;;;5032237;28;20061;-83
2021/03/31 04:19:35;;;;;;;14.85;8.73;;;9.60;81.20;;;;;;5031089;28;20037;-83
2021/03/31 04:22:00;;;;;;;16.92;9.93;;;9.60;80.80;;;;;;5030862;28;20018;-83
2021/03/31 04:24:26;;;;;;;19.42;9.90;;;9.70;80.80;;;;;;5031123;28;20071;-83
2021/03/31 04:26:54;;;;;;;18.08;10.77;;;9.80;79.70;;;;;;5032038;28;20021;-83
2021/03/31 04:29:20;;;;;;;23.27;13.65;;;9.80;79.20;;;;;;5030895;28;20029;-83
2021/03/31 04:31:46;;;;;;;30.85;15.80;;;9.80;78.80;;;;;;5044871;28;20024;-83
2021/03/31 04:34:12;;;;;;;26.73;14.50;;;9.80;78.20;;;;;;5031817;28;20017;-83
2021/03/31 04:36:38;;;;;;;32.78;17.20;;;9.90;77.80;;;;;;5030800;28;20029;-83
2021/03/31 04:39:05;;;;;;;33.22;18.52;;;9.90;77.20;;;;;;5030657;28;20460;-83
2021/03/31 04:41:32;;;;;;;28.95;16.02;;;9.90;76.80;;;;;;5030442;28;20107;-83
2021/03/31 04:43:57;;;;;;;29.90;16.92;;;9.90;76.40;;;;;;5031222;28;20022;-83
2021/03/31 04:46:23;;;;;;;32.00;17.73;;;9.90;75.90;;;;;;5031924;28;20036;-83
2021/03/31 04:48:49;;;;;;;31.30;17.95;;;9.90;75.70;;;;;;5016981;28;20532;-83
2021/03/31 04:51:14;;;;;;;29.25;17.42;;;9.90;75.40;;;;;;5030508;28;20072;-83
2021/03/31 04:53:40;;;;;;;31.25;17.10;;;9.90;75.20;;;;;;5045220;28;20052;-83
2021/03/31 04:56:06;;;;;;;26.83;14.80;;;9.90;75.10;;;;;;5030440;28;20079;-83
2021/03/31 04:58:32;;;;;;;25.27;15.35;;;9.80;75.30;;;;;;5030490;28;20028;-83
2021/03/31 05:00:59;;;;;;;29.20;18.02;;;9.80;75.30;;;;;;5046557;28;20021;-83
2021/03/31 05:03:25;;;;;;;28.05;15.55;;;9.80;75.40;;;;;;5034306;28;20442;-83
2021/03/31 05:05:51;;;;;;;31.08;17.52;;;9.80;75.30;;;;;;5031715;28;20024;-83
2021/03/31 05:08:16;;;;;;;32.75;17.65;;;9.70;75.40;;;;;;5031835;28;20102;-83
2021/03/31 05:10:42;;;;;;;29.33;17.13;;;9.70;75.30;;;;;;5031452;28;20385;-83
2021/03/31 05:13:07;;;;;;;31.77;17.70;;;9.70;75.20;;;;;;5030306;28;20032;-83
2021/03/31 05:15:33;;;;;;;31.75;17.52;;;9.70;75.10;;;;;;5041967;28;20464;-83
2021/03/31 05:17:58;;;;;;;31.77;16.23;;;9.60;75.10;;;;;;5024527;28;20025;-83
2021/03/31 05:20:24;;;;;;;28.23;15.13;;;9.60;75.10;;;;;;5043693;28;20109;-83
2021/03/31 05:22:50;;;;;;;28.95;16.23;;;9.60;75.20;;;;;;5031652;28;20141;-82
2021/03/31 05:25:16;;;;;;;23.92;14.63;;;9.50;75.30;;;;;;5029776;28;20029;-85
2021/03/31 05:27:41;;;;;;;27.88;15.95;;;9.50;75.40;;;;;;5030247;28;20030;-82
2021/03/31 05:30:08;;;;;;;33.95;17.60;;;9.40;75.60;;;;;;5011994;28;20033;-83
2021/03/31 05:32:34;;;;;;;31.20;17.23;;;9.50;75.90;;;;;;5027737;28;20053;-83
2021/03/31 05:35:00;;;;;;;30.27;16.23;;;9.40;75.90;;;;;;5011646;28;20115;-82
2021/03/31 05:37:26;;;;;;;24.30;15.05;;;9.40;75.90;;;;;;5027972;28;20477;-82
2021/03/31 05:39:51;;;;;;;23.10;13.55;;;9.40;75.90;;;;;;5011219;28;20041;-82
2021/03/31 05:42:17;;;;;;;29.42;14.63;;;9.40;75.90;;;;;;5011476;28;20088;-82
2021/03/31 05:44:44;;;;;;;24.75;13.63;;;9.40;76.10;;;;;;5012280;28;20030;-82
2021/03/31 05:47:14;;;;;;;24.95;15.10;;;9.40;76.00;;;;;;5011645;28;20034;-83
2021/03/31 05:49:40;;;;;;;27.10;15.30;;;9.50;76.00;;;;;;5012437;28;20137;-83
2021/03/31 05:52:09;;;;;;;29.10;16.98;;;9.50;75.80;;;;;;5012665;28;20026;-81
2021/03/31 05:54:35;;;;;;;24.55;15.43;;;9.50;76.00;;;;;;5012461;28;20081;-82
2021/03/31 05:57:00;;;;;;;27.88;15.60;;;9.60;75.90;;;;;;5031476;28;20026;-83
2021/03/31 05:59:26;;;;;;;22.48;14.35;;;9.50;75.80;;;;;;5015198;28;20032;-83
2021/03/31 06:01:52;;;;;;;27.58;16.08;;;9.50;75.80;;;;;;5014974;28;20033;-82
2021/03/31 06:04:18;;;;;;;26.70;15.10;;;9.50;75.90;;;;;;5016952;28;20037;-82
2021/03/31 06:06:43;;;;;;;26.20;15.70;;;9.60;75.90;;;;;;5014871;28;20048;-82
2021/03/31 06:09:09;;;;;;;30.63;15.07;;;9.60;76.20;;;;;;5014836;28;20544;-82
2021/03/31 06:11:53;;;;;;;28.27;15.63;;;9.70;76.00;;;;;;5031186;28;20049;-82
2021/03/31 06:14:33;;;;;;;27.40;17.00;;;9.70;75.70;;;;;;5014635;28;20057;-82
2021/03/31 06:17:10;;;;;;;31.40;16.45;;;9.70;76.10;;;;;;5033853;28;20112;-82
2021/03/31 06:19:38;;;;;;;31.15;16.30;;;9.80;76.00;;;;;;5034561;28;20029;-82
2021/03/31 06:22:31;;;;;;;22.08;13.95;;;9.80;76.20;;;;;;5034400;28;20026;-81
2021/03/31 06:25:25;;;;;;;21.30;12.40;;;9.80;76.00;;;;;;5034174;28;20030;-84
2021/03/31 06:27:53;;;;;;;27.48;14.65;;;9.90;75.80;;;;;;5035572;28;20501;-82
2021/03/31 06:30:23;;;;;;;27.80;14.75;;;9.90;76.10;;;;;;5050821;28;20029;-82
2021/03/31 06:32:51;;;;;;;22.13;13.93;;;9.90;76.40;;;;;;5035398;28;20021;-82
2021/03/31 06:35:20;;;;;;;25.08;14.65;;;9.90;77.20;;;;;;5050683;28;20116;-82
2021/03/31 06:37:46;;;;;;;23.08;15.23;;;9.90;77.70;;;;;;5035352;28;20025;-81
2021/03/31 06:40:33;;;;;;;25.23;15.38;;;9.90;78.30;;;;;;5050594;28;20388;-83
2021/03/31 06:43:20;;;;;;;25.80;16.27;;;10.00;79.00;;;;;;5050448;28;20393;-83
2021/03/31 06:45:57;;;;;;;22.10;13.70;;;10.00;79.20;;;;;;5035193;28;20026;-83
2021/03/31 06:48:24;;;;;;;20.52;12.95;;;10.00;79.00;;;;;;5034741;28;20026;-83
2021/03/31 06:50:50;;;;;;;22.08;12.70;;;10.10;79.40;;;;;;5034307;28;20017;-82
2021/03/31 06:53:26;;;;;;;22.65;14.13;;;10.20;79.20;;;;;;5027073;28;20025;-82
2021/03/31 06:56:03;;;;;;;23.35;13.88;;;10.20;79.00;;;;;;5027660;28;20389;-82
2021/03/31 06:58:29;;;;;;;23.15;14.13;;;10.30;78.80;;;;;;5023270;28;20022;-82
2021/03/31 07:00:55;;;;;;;22.50;14.90;;;10.40;79.00;;;;;;5027707;28;20030;-83
2021/03/31 07:03:21;;;;;;;25.70;14.43;;;10.40;79.10;;;;;;5030389;28;20029;-83
2021/03/31 07:05:46;;;;;;;24.92;15.02;;;10.50;79.20;;;;;;5027272;28;20025;-82
2021/03/31 07:08:17;;;;;;;29.58;16.08;;;10.60;79.60;;;;;;5047505;28;20017;-82
2021/03/31 07:10:55;;;;;;;20.50;14.65;;;10.70;79.70;;;;;;5033157;28;20123;-82
2021/03/31 07:13:34;;;;;;;30.15;14.80;;;10.80;78.90;;;;;;5033757;28;20030;-82
2021/03/31 07:16:03;;;;;;;34.35;18.05;;;10.90;78.60;;;;;;5030900;28;20028;-82
2021/03/31 07:18:30;;;;;;;24.02;14.43;;;10.90;78.40;;;;;;5034294;28;20025;-82
2021/03/31 07:20:56;;;;;;;31.38;16.65;;;11.00;78.10;;;;;;5034049;28;20481;-82
2021/03/31 07:23:24;;;;;;;24.95;15.73;;;11.10;78.10;;;;;;5032967;28;20030;-83
2021/03/31 07:25:51;;;;;;;25.65;15.40;;;11.20;78.00;;;;;;5032993;28;20033;-83
2021/03/31 07:28:29;;;;;;;23.20;15.52;;;11.20;78.00;;;;;;5032756;28;20029;-83
2021/03/31 07:30:56;;;;;;;26.08;16.42;;;11.40;78.10;;;;;;5034234;28;20531;-83
2021/03/31 07:33:25;;;;;;;27.02;16.25;;;11.40;77.60;;;;;;5032715;28;20496;-83
2021/03/31 07:35:53;;;;;;;25.73;16.03;;;11.50;77.10;;;;;;5033985;28;20021;-83
2021/03/31 07:38:22;;;;;;;23.77;15.65;;;11.60;76.70;;;;;;5032696;28;20056;-83
2021/03/31 07:40:49;;;;;;;22.80;14.37;;;11.70;76.50;;;;;;5033482;28;20034;-83
2021/03/31 07:43:26;;;;;;;25.92;16.05;;;11.70;76.60;;;;;;5032460;28;20440;-83
2021/03/31 07:45:57;;;;;;;23.73;15.75;;;11.80;76.60;;;;;;5036124;28;20021;-83
2021/03/31 07:48:24;;;;;;;22.83;15.25;;;11.90;77.30;;;;;;5032585;28;20026;-83
2021/03/31 07:50:49;;;;;;;23.48;14.98;;;12.00;77.30;;;;;;5032606;28;20032;-83
2021/03/31 07:53:15;;;;;;;26.77;15.13;;;12.10;77.10;;;;;;5033571;28;20038;-83
2021/03/31 07:55:43;;;;;;;25.10;16.20;;;12.20;76.90;;;;;;5032257;28;20476;-82
2021/03/31 07:58:29;;;;;;;23.63;14.23;;;12.30;75.40;;;;;;5032271;28;20045;-83
2021/03/31 08:01:04;;;;;;;22.90;14.98;;;12.40;75.00;;;;;;5033454;28;20068;-83
2021/03/31 08:03:32;;;;;;;22.20;14.10;;;12.50;74.90;;;;;;5033568;28;20040;-83
2021/03/31 08:06:19;;;;;;;20.50;13.55;;;12.50;74.70;;;;;;5033309;28;20037;-83
2021/03/31 08:08:44;;;;;;;21.52;14.38;;;12.70;74.50;;;;;;5033368;28;20021;-83
2021/03/31 08:11:11;;;;;;;21.58;14.18;;;12.80;74.10;;;;;;5032185;28;20025;-83
2021/03/31 08:13:39;;;;;;;22.02;13.68;;;12.80;73.60;;;;;;5031801;28;20029;-83
2021/03/31 08:16:33;;;;;;;23.50;14.07;;;13.00;73.50;;;;;;5031835;28;20021;-83
2021/03/31 08:19:07;;;;;;;22.73;15.68;;;13.10;73.40;;;;;;5033227;28;20420;-83
2021/03/31 08:21:33;;;;;;;19.00;13.43;;;13.20;73.30;;;;;;5032013;28;20088;-83
2021/03/31 08:24:01;;;;;;;16.63;12.68;;;13.30;72.70;;;;;;5033220;28;20065;-83
2021/03/31 08:26:32;;;;;;;22.10;14.70;;;13.40;72.50;;;;;;5048116;28;20033;-83
2021/03/31 08:29:00;;;;;;;22.45;14.68;;;13.60;72.30;;;;;;5048380;28;20035;-83
2021/03/31 08:31:28;;;;;;;17.20;13.05;;;13.70;71.90;;;;;;5048574;28;20031;-83
2021/03/31 08:33:54;;;;;;;18.83;12.30;;;13.80;72.00;;;;;;5047939;28;20060;-83
2021/03/31 08:36:19;;;;;;;17.45;12.43;;;13.80;72.30;;;;;;5031900;28;20544;-83
2021/03/31 08:38:50;;;;;;;20.80;14.38;;;14.00;71.90;;;;;;5031218;28;20040;-83
2021/03/31 08:41:17;;;;;;;24.17;15.32;;;14.10;71.00;;;;;;5031580;28;20118;-83
2021/03/31 08:43:45;;;;;;;24.75;15.23;;;14.20;71.00;;;;;;5032838;28;20068;-83
2021/03/31 08:46:12;;;;;;;26.70;14.30;;;14.20;71.00;;;;;;5030928;28;20021;-83
2021/03/31 08:48:41;;;;;;;22.38;13.98;;;14.40;71.00;;;;;;5031146;28;20029;-83
2021/03/31 08:51:16;;;;;;;;;;;14.50;70.50;;;;;;5032991;28;20029;-83
2021/03/31 08:53:42;;;;;;;19.48;14.65;;;14.70;70.20;;;;;;5032725;28;19916;-83
2021/03/31 08:56:23;;;;;;;24.08;15.18;;;14.80;69.80;;;;;;5031375;28;20436;-83
2021/03/31 08:58:54;;;;;;;23.00;14.25;;;15.10;69.40;;;;;;5032157;28;20034;-83
2021/03/31 09:01:27;;;;;;;19.75;14.30;;;15.20;68.70;;;;;;5032129;28;20034;-83
2021/03/31 09:04:22;;;;;;;21.30;14.13;;;15.40;68.10;;;;;;5032526;28;20544;-83
2021/03/31 09:06:48;;;;;;;20.20;13.60;;;15.60;67.70;;;;;;5033566;28;20105;-83
2021/03/31 09:09:13;;;;;;;20.63;13.88;;;15.70;67.60;;;;;;5032460;28;20049;-83
2021/03/31 09:11:39;;;;;;;19.83;13.55;;;15.80;67.20;;;;;;5032537;28;20481;-84
2021/03/31 09:14:20;;;;;;;19.80;12.55;;;16.00;66.70;;;;;;5044708;28;20041;-84
2021/03/31 09:16:54;;;;;;;16.38;11.07;;;16.20;66.60;;;;;;5056821;28;20013;-83
2021/03/31 09:19:19;;;;;;;16.48;11.20;;;16.40;67.80;;;;;;5054529;28;20057;-84
2021/03/31 09:21:45;;;;;;;17.48;10.73;;;16.70;68.40;;;;;;5041467;28;20026;-83
2021/03/31 09:24:19;;;;;;;13.25;9.52;;;18.50;65.60;;;;;;5031114;28;20075;-83
2021/03/31 09:27:06;;;;;;;16.67;11.30;;;21.00;59.70;;;;;;5032280;28;20445;-84
2021/03/31 09:29:32;;;;;;;12.98;9.75;;;23.40;54.80;;;;;;5030906;28;20485;-84
2021/03/31 09:32:02;;;;;;;15.73;10.63;;;24.70;50.40;;;;;;5035147;28;20032;-84
2021/03/31 09:34:27;;;;;;;;;;;25.70;47.90;;;;;;5035434;28;20376;-83
2021/03/31 09:36:57;;;;;;;14.80;9.35;;;26.30;45.40;;;;;;5036047;28;20418;-83
2021/03/31 09:39:37;;;;;;;12.70;8.45;;;27.20;43.80;;;;;;5035981;28;20022;-83
2021/03/31 09:42:03;;;;;;;11.23;8.18;;;28.40;43.30;;;;;;5035155;28;20048;-83
2021/03/31 09:44:31;;;;;;;10.60;7.55;;;29.40;41.90;;;;;;5034814;28;20030;-83
2021/03/31 09:46:57;;;;;;;14.38;7.70;;;30.20;40.90;;;;;;5035925;28;20481;-83
2021/03/31 09:49:22;;;;;;;9.88;6.63;;;31.10;39.90;;;;;;5036147;28;20033;-83
2021/03/31 09:51:48;;;;;;;8.88;7.82;;;31.80;39.20;;;;;;5036136;28;20052;-83
2021/03/31 09:54:14;;;;;;;10.43;8.25;;;32.40;38.10;;;;;;5034714;28;20037;-83
2021/03/31 09:56:39;;;;;;;10.82;8.75;;;32.60;36.80;;;;;;5034527;28;20033;-83
2021/03/31 09:59:05;;;;;;;8.32;7.30;;;32.90;35.80;;;;;;5034781;28;20380;-85
2021/03/31 10:01:31;;;;;;;11.05;8.90;;;33.50;35.70;;;;;;5033669;28;20029;-85
2021/03/31 10:03:58;;;;;;;10.30;8.20;;;34.00;34.50;;;;;;5035099;28;20022;-85
2021/03/31 10:06:25;;;;;;;11.93;9.27;;;33.70;34.30;;;;;;5033924;28;20071;-84
2021/03/31 10:08:51;;;;;;;8.80;7.90;;;33.80;33.00;;;;;;5034540;28;20036;-84
2021/03/31 10:11:33;;;;;;;8.55;7.10;;;34.60;33.50;;;;;;5034615;28;20083;-82
2021/03/31 10:14:01;;;;;;;9.90;8.15;;;35.70;33.30;;;;;;5035624;28;20152;-82
2021/03/31 10:16:38;;;;;;;10.50;7.10;;;35.60;31.90;;;;;;5035342;28;20068;-82
2021/03/31 10:19:07;;;;;;;9.75;8.00;;;36.30;31.80;;;;;;5035538;28;20102;-81
2021/03/31 10:21:35;;;;;;;12.55;10.18;;;36.60;30.70;;;;;;5034081;28;20056;-81
2021/03/31 10:24:02;;;;;;;9.40;8.43;;;36.30;29.60;;;;;;5035580;28;20049;-81
2021/03/31 10:26:30;;;;;;;7.70;7.00;;;36.90;29.90;;;;;;5034046;28;20389;-80
2021/03/31 10:28:57;;;;;;;10.25;9.15;;;37.60;30.10;;;;;;5034216;28;20079;-81
2021/03/31 10:31:33;;;;;;;10.45;8.85;;;37.50;30.30;;;;;;5033261;28;20041;-82
2021/03/31 10:34:00;;;;;;;10.40;8.30;;;37.00;29.20;;;;;;5033942;28;20049;-82
2021/03/31 10:53:35;;;;;;;9.00;7.45;;;39.20;28.80;;;;;;5005858;28;20072;-81
2021/03/31 10:56:03;;;;;;;8.18;7.38;;;39.90;28.70;;;;;;5033020;28;20087;-83
2021/03/31 10:58:28;;;;;;;10.40;9.32;;;40.10;28.40;;;;;;5032458;28;20080;-82
2021/03/31 11:00:54;;;;;;;13.48;9.70;;;39.30;27.90;;;;;;5031270;28;20029;-83
2021/03/31 11:03:21;;;;;;;8.73;7.80;;;39.30;27.70;;;;;;5045979;28;20026;-83
2021/03/31 11:05:47;;;;;;;7.82;7.03;;;39.60;27.90;;;;;;5033078;28;20068;-83
2021/03/31 11:08:12;;;;;;;7.80;6.82;;;40.30;28.10;;;;;;5033123;28;20389;-82
2021/03/31 11:10:38;;;;;;;8.68;7.65;;;41.10;28.00;;;;;;5034462;28;20032;-83
2021/03/31 11:13:03;;;;;;;7.32;6.28;;;41.40;27.70;;;;;;5034226;28;20393;-83
2021/03/31 11:15:29;;;;;;;10.45;8.40;;;42.00;27.90;;;;;;5030111;28;20033;-83
2021/03/31 11:18:04;;;;;;;8.70;7.65;;;41.60;27.20;;;;;;5033043;28;20025;-83
2021/03/31 11:26:00;;;;;;;10.85;8.80;;;39.20;26.40;;;;;;5033995;28;20059;-84
2021/03/31 11:28:25;;;;;;;9.90;7.60;;;38.70;27.30;;;;;;5032537;28;20565;-84
2021/03/31 11:30:52;;;;;;;8.70;7.90;;;39.70;27.20;;;;;;5033643;28;20065;-82
2021/03/31 11:33:20;;;;;;;11.77;8.68;;;40.50;27.00;;;;;;5032447;28;20033;-81
2021/03/31 11:35:47;;;;;;;9.52;6.20;;;40.00;26.40;;;;;;5031387;28;20025;-82
2021/03/31 11:38:12;;;;;;;9.63;7.35;;;40.90;26.90;;;;;;5033748;28;20028;-82
2021/03/31 11:40:38;;;;;;;11.50;10.30;;;41.20;26.50;;;;;;5032572;28;20037;-81
2021/03/31 11:43:06;;;;;;;9.35;7.15;;;41.30;25.90;;;;;;5033815;28;20033;-82
2021/03/31 11:45:33;;;;;;;9.20;8.30;;;41.20;26.40;;;;;;5032550;28;20017;-82
2021/03/31 11:47:58;;;;;;;6.97;6.25;;;41.40;26.20;;;;;;5033753;28;20032;-81
2021/03/31 11:50:25;;;;;;;13.23;9.93;;;42.00;26.70;;;;;;5032350;28;20112;-81
2021/03/31 11:52:52;;;;;;;13.57;11.45;;;42.00;25.70;;;;;;5031877;28;20081;-81
2021/03/31 11:55:17;;;;;;;9.38;8.43;;;41.40;25.30;;;;;;5033682;28;20473;-81
2021/03/31 11:57:43;;;;;;;9.10;8.20;;;42.00;25.80;;;;;;5033626;28;20037;-81
2021/03/31 12:00:09;;;;;;;8.68;7.68;;;42.20;25.80;;;;;;5032216;28;20068;-81
2021/03/31 12:02:34;;;;;;;9.05;8.05;;;42.50;25.50;;;;;;5026287;28;20092;-81
2021/03/31 12:05:00;;;;;;;9.43;8.45;;;42.80;25.10;;;;;;5038853;28;20029;-81
2021/03/31 12:07:25;;;;;;;11.00;9.05;;;42.70;25.40;;;;;;5032044;28;20017;-81
2021/03/31 12:09:51;;;;;;;8.70;7.80;;;42.50;25.50;;;;;;5032244;28;20102;-81
2021/03/31 12:12:16;;;;;;;8.65;7.85;;;42.60;25.70;;;;;;5032093;28;20032;-82
2021/03/31 12:14:42;;;;;;;9.05;8.15;;;43.00;25.70;;;;;;5037501;28;20083;-82
2021/03/31 12:17:08;;;;;;;8.32;7.00;;;42.90;25.60;;;;;;5032041;28;20497;-81
2021/03/31 12:19:34;;;;;;;11.43;10.20;;;43.00;25.70;;;;;;5033249;28;20034;-82
2021/03/31 12:22:00;;;;;;;10.43;9.43;;;42.60;25.40;;;;;;5033316;28;20029;-83
2021/03/31 12:24:26;;;;;;;12.55;11.25;;;41.80;25.40;;;;;;5032059;28;20029;-83
2021/03/31 12:26:58;;;;;;;10.35;7.90;;;40.90;25.40;;;;;;5033304;28;20044;-83
2021/03/31 12:29:24;;;;;;;11.55;10.35;;;40.10;26.10;;;;;;5031755;28;20052;-83
2021/03/31 12:31:49;;;;;;;10.02;9.02;;;41.40;25.50;;;;;;5030060;28;20095;-83
2021/03/31 12:34:15;;;;;;;12.80;10.65;;;42.50;25.30;;;;;;5025166;28;20503;-83
2021/03/31 12:36:40;;;;;;;7.68;6.93;;;43.20;24.90;;;;;;5032183;28;20036;-83
2021/03/31 12:39:06;;;;;;;8.32;7.63;;;43.70;25.30;;;;;;5032568;28;20075;-83
2021/03/31 12:41:33;;;;;;;10.40;8.65;;;43.90;25.60;;;;;;5030939;28;20079;-83
2021/03/31 12:43:59;;;;;;;14.75;13.30;;;43.20;26.00;;;;;;5030005;28;20025;-83
2021/03/31 12:46:25;;;;;;;11.82;10.73;;;42.00;25.20;;;;;;5031063;28;20029;-83
2021/03/31 12:48:51;;;;;;;11.73;10.52;;;40.40;26.10;;;;;;5032254;28;20029;-82
2021/03/31 12:51:26;;;;;;;10.43;9.35;;;39.80;26.20;;;;;;5022879;28;20042;-83
2021/03/31 12:54:00;;;;;;;14.07;12.77;;;39.50;26.50;;;;;;5039401;28;20511;-83
2021/03/31 12:56:26;;;;;;;11.38;10.38;;;40.20;25.90;;;;;;5030749;28;20024;-83
2021/03/31 12:58:52;;;;;;;8.18;7.38;;;41.00;25.80;;;;;;5032267;28;20097;-83
2021/03/31 13:01:24;;;;;;;12.38;10.10;;;42.10;26.00;;;;;;5028385;28;20508;-83
2021/03/31 13:03:51;;;;;;;7.68;6.97;;;43.00;25.60;;;;;;5030900;28;20488;-83